createdAt,value
2019-05-10T00:00:33.557Z,10.45
2019-05-10T00:05:56.727Z,10.33
2019-05-10T00:11:33.474Z,10.16
2019-05-10T00:16:38.542Z,10.29
2019-05-10T00:21:44.290Z,10.27
2019-05-10T00:26:49.639Z,10.16
2019-05-10T00:31:55.015Z,10.21
2019-05-10T00:37:00.159Z,10.01
2019-05-10T00:42:05.383Z,10.11
2019-05-10T00:47:10.883Z,10.11
2019-05-10T00:52:16.230Z,10.02
2019-05-10T00:57:21.587Z,10.14
2019-05-10T01:02:26.943Z,10.10
2019-05-10T01:07:32.914Z,10.06
2019-05-10T01:12:38.009Z,10.05
2019-05-10T01:17:43.079Z,10.03
2019-05-10T01:22:48.180Z,10.06
2019-05-10T01:27:53.405Z,9.98
2019-05-10T01:32:59.193Z,10.05
2019-05-10T01:38:05.068Z,10.15
2019-05-10T01:43:10.476Z,9.95
2019-05-10T01:48:15.469Z,10.02
2019-05-10T01:53:21.254Z,9.98
2019-05-10T01:58:26.606Z,9.84
2019-05-10T02:03:31.589Z,9.99
2019-05-10T02:08:37.219Z,9.90
2019-05-10T02:13:42.581Z,10.03
2019-05-10T02:18:48.009Z,9.89
2019-05-10T02:23:53.011Z,10.00
2019-05-10T02:28:58.086Z,9.99
2019-05-10T02:34:03.153Z,9.92
2019-05-10T02:39:09.206Z,9.96
2019-05-10T02:44:14.346Z,9.99
2019-05-10T02:49:19.504Z,9.90
2019-05-10T02:54:24.645Z,9.87
2019-05-10T02:59:30.851Z,9.73
2019-05-10T03:04:37.209Z,9.87
2019-05-10T03:09:43.703Z,9.71
2019-05-10T03:14:52.688Z,9.78
2019-05-10T03:19:59.272Z,9.55
2019-05-10T03:25:05.393Z,9.64
2019-05-10T03:30:11.307Z,9.49
2019-05-10T03:35:16.486Z,9.49
2019-05-10T03:40:21.546Z,9.55
2019-05-10T03:45:27.032Z,9.55
2019-05-10T03:50:32.682Z,9.58
2019-05-10T03:55:38.349Z,9.59
2019-05-10T04:00:43.492Z,9.52
2019-05-10T04:05:48.993Z,9.53
2019-05-10T04:10:54.738Z,9.54
2019-05-10T04:16:00.327Z,9.40
2019-05-10T04:21:05.494Z,9.62
2019-05-10T04:26:11.221Z,9.52
2019-05-10T04:31:16.673Z,9.40
2019-05-10T04:36:21.758Z,9.57
2019-05-10T04:41:26.872Z,9.73
2019-05-10T04:46:32.665Z,9.56
2019-05-10T04:51:37.980Z,9.82
2019-05-10T04:56:43.091Z,10.08
2019-05-10T05:01:48.734Z,10.00
2019-05-10T05:06:54.085Z,10.14
2019-05-10T05:11:59.439Z,10.15
2019-05-10T05:17:04.799Z,10.34
2019-05-10T05:22:10.055Z,10.29
2019-05-10T05:27:15.323Z,10.31
2019-05-10T05:32:20.679Z,10.34
2019-05-10T05:37:26.198Z,10.32
2019-05-10T05:42:31.345Z,10.45
2019-05-10T05:47:37.558Z,10.62
2019-05-10T05:52:43.843Z,10.80
2019-05-10T05:57:49.174Z,11.34
2019-05-10T06:02:54.467Z,12.07
2019-05-10T06:07:59.718Z,11.30
2019-05-10T06:13:05.190Z,12.04
2019-05-10T06:18:12.158Z,12.27
2019-05-10T06:23:17.736Z,11.60
2019-05-10T06:28:27.044Z,12.19
2019-05-10T06:33:30.197Z,12.17
2019-05-10T06:38:36.067Z,11.95
2019-05-10T06:43:45.727Z,11.88
2019-05-10T06:48:49.447Z,11.79
2019-05-10T06:53:54.779Z,11.81
2019-05-10T06:59:12.388Z,12.00
2019-05-10T07:04:06.935Z,12.39
2019-05-10T07:09:12.294Z,12.53
2019-05-10T07:14:17.459Z,12.60
2019-05-10T07:19:22.531Z,13.17
2019-05-10T07:24:28.180Z,13.18
2019-05-10T07:29:41.767Z,13.38
2019-05-10T07:34:40.887Z,13.09
2019-05-10T07:39:46.266Z,13.09
2019-05-10T07:44:52.186Z,13.66
2019-05-10T07:49:57.277Z,13.75
2019-05-10T07:55:02.902Z,14.17
2019-05-10T08:00:09.526Z,14.19
2019-05-10T08:05:15.431Z,13.55
2019-05-10T08:10:21.502Z,13.75
2019-05-10T08:15:30.540Z,13.56
2019-05-10T08:20:46.403Z,13.70
2019-05-10T08:25:46.646Z,13.92
2019-05-10T08:30:57.272Z,14.25
2019-05-10T08:36:00.630Z,13.70
2019-05-10T08:41:02.665Z,13.55
2019-05-10T08:46:08.674Z,12.89
2019-05-10T08:51:13.819Z,12.66
2019-05-10T08:56:21.646Z,12.57
2019-05-10T09:01:30.077Z,12.95
2019-05-10T09:06:32.925Z,13.18
2019-05-10T09:11:38.203Z,13.24
2019-05-10T09:16:52.771Z,13.88
2019-05-10T09:21:54.796Z,14.25
2019-05-10T09:26:57.687Z,14.11
2019-05-10T09:32:06.304Z,14.05
2019-05-10T09:37:14.536Z,14.37
2019-05-10T09:42:25.480Z,15.04
2019-05-10T09:47:24.489Z,15.30
2019-05-10T09:52:29.635Z,14.58
2019-05-10T09:57:37.827Z,14.07
2019-05-10T10:02:47.856Z,14.07
2019-05-10T10:07:49.210Z,14.16
2019-05-10T10:12:58.306Z,14.45
2019-05-10T10:18:01.603Z,14.82
2019-05-10T10:23:07.437Z,14.46
2019-05-10T10:28:17.097Z,14.66
2019-05-10T10:33:25.403Z,15.23
2019-05-10T10:38:30.597Z,15.53
2019-05-10T10:43:33.610Z,16.09
2019-05-10T10:48:43.526Z,15.97
2019-05-10T10:53:47.042Z,15.82
2019-05-10T10:58:52.559Z,15.65
2019-05-10T11:04:03.567Z,15.50
2019-05-10T11:09:07.794Z,15.17
2019-05-10T11:14:12.822Z,15.72
2019-05-10T11:19:17.887Z,15.95
2019-05-10T11:24:23.611Z,16.32
2019-05-10T11:29:30.881Z,16.90
2019-05-10T11:34:37.725Z,16.37
2019-05-10T11:39:46.895Z,16.08
2019-05-10T11:44:54.220Z,16.59
2019-05-10T11:49:56.726Z,17.25
2019-05-10T11:55:02.050Z,17.79
2019-05-10T12:00:14.200Z,16.84
2019-05-10T12:05:20.017Z,16.41
2019-05-10T12:10:25.540Z,16.23
2019-05-10T12:15:31.768Z,16.27
2019-05-10T12:20:51.590Z,15.71
2019-05-10T12:25:57.937Z,15.64
2019-05-10T12:30:51.635Z,16.13
2019-05-10T12:35:57.099Z,15.55
2019-05-10T12:41:05.370Z,15.33
2019-05-10T12:46:10.492Z,15.25
2019-05-10T12:51:16.757Z,15.46
2019-05-10T12:56:21.841Z,16.11
2019-05-10T13:01:31.740Z,15.67
2019-05-10T13:06:35.593Z,15.61
2019-05-10T13:11:40.698Z,15.49
2019-05-10T13:16:45.771Z,15.26
2019-05-10T13:21:53.792Z,14.54
2019-05-10T13:26:57.672Z,14.99
2019-05-10T13:32:02.741Z,15.07
2019-05-10T13:37:13.599Z,14.45
2019-05-10T13:42:15.255Z,14.57
2019-05-10T13:47:20.640Z,14.61
2019-05-10T13:52:29.829Z,13.56
2019-05-10T13:57:32.769Z,13.83
2019-05-10T14:02:38.356Z,13.83
2019-05-10T14:07:51.275Z,13.60
2019-05-10T14:12:55.893Z,13.61
2019-05-10T14:17:57.987Z,13.32
2019-05-10T14:23:03.087Z,13.23
2019-05-10T14:28:09.599Z,13.29
2019-05-10T14:33:17.262Z,13.27
2019-05-10T14:38:22.956Z,12.87
2019-05-10T14:43:28.578Z,13.08
2019-05-10T14:48:35.511Z,13.07
2019-05-10T14:53:41.038Z,13.77
2019-05-10T14:58:46.803Z,14.90
2019-05-10T15:03:52.357Z,15.55
2019-05-10T15:08:57.439Z,16.04
2019-05-10T15:14:03.478Z,16.19
2019-05-10T15:19:08.569Z,15.66
2019-05-10T15:24:13.566Z,15.89
2019-05-10T15:29:22.883Z,16.24
2019-05-10T15:34:25.611Z,16.42
2019-05-10T15:39:31.304Z,16.31
2019-05-10T15:44:36.370Z,15.45
2019-05-10T15:49:41.523Z,14.78
2019-05-10T15:54:47.209Z,14.39
2019-05-10T15:59:56.836Z,14.24
2019-05-10T16:05:00.010Z,13.46
2019-05-10T16:10:05.736Z,13.65
2019-05-10T16:15:13.619Z,13.28
2019-05-10T16:20:18.275Z,13.59
2019-05-10T16:25:23.420Z,13.73
2019-05-10T16:30:28.431Z,13.86
2019-05-10T16:35:38.817Z,13.62
2019-05-10T16:40:44.311Z,13.85
2019-05-10T16:45:47.935Z,13.61
2019-05-10T16:50:53.274Z,13.94
2019-05-10T16:55:58.637Z,13.89
2019-05-10T17:01:03.971Z,13.86
2019-05-10T17:06:09.766Z,14.04
2019-05-10T17:11:15.227Z,14.20
2019-05-10T17:16:20.375Z,14.28
2019-05-10T17:21:25.525Z,14.23
2019-05-10T17:26:32.806Z,13.80
2019-05-10T17:31:39.690Z,13.73
2019-05-10T17:36:45.377Z,13.74
2019-05-10T17:41:50.536Z,13.48
2019-05-10T17:46:57.478Z,13.46
2019-05-10T17:52:03.164Z,13.53
2019-05-10T17:57:10.772Z,13.41
2019-05-10T18:02:15.252Z,13.10
2019-05-10T18:07:20.403Z,13.16
2019-05-10T18:12:27.236Z,12.97
2019-05-10T18:17:32.737Z,12.90
2019-05-10T18:22:43.482Z,12.89
2019-05-10T18:27:45.266Z,12.73
2019-05-10T18:32:50.993Z,12.60
2019-05-10T18:37:59.610Z,12.52
2019-05-10T18:43:04.516Z,12.46
2019-05-10T18:48:10.205Z,12.28
2019-05-10T18:53:15.329Z,11.94
2019-05-10T18:58:23.402Z,11.97
2019-05-10T19:03:33.456Z,12.04
2019-05-10T19:08:34.995Z,11.91
2019-05-10T19:13:47.306Z,11.78
2019-05-10T19:18:47.397Z,11.80
2019-05-10T19:23:53.684Z,11.77
2019-05-10T19:29:05.040Z,11.77
2019-05-10T19:34:09.160Z,11.72
2019-05-10T19:39:13.657Z,11.45
2019-05-10T19:44:20.134Z,11.96
2019-05-10T19:49:25.510Z,11.97
2019-05-10T19:54:30.523Z,11.90
2019-05-10T19:59:35.853Z,11.55
2019-05-10T20:04:41.692Z,11.42
2019-05-10T20:09:47.137Z,11.28
2019-05-10T20:14:52.234Z,11.13
2019-05-10T20:19:57.380Z,11.05
2019-05-10T20:25:02.472Z,10.85
2019-05-10T20:30:08.253Z,10.69
2019-05-10T20:35:13.627Z,10.47
2019-05-10T20:40:18.955Z,10.46
2019-05-10T20:45:24.081Z,10.15
2019-05-10T20:50:29.597Z,10.24
2019-05-10T20:55:34.670Z,10.05
2019-05-10T21:00:39.769Z,10.09
2019-05-10T21:05:45.463Z,9.88
2019-05-10T21:10:50.507Z,9.84
2019-05-10T21:15:56.398Z,9.91
2019-05-10T21:21:01.991Z,9.88
2019-05-10T21:26:07.010Z,9.76
2019-05-10T21:31:12.442Z,9.81
2019-05-10T21:36:17.896Z,9.83
2019-05-10T21:41:23.284Z,9.74
2019-05-10T21:46:28.834Z,9.70
2019-05-10T21:51:34.041Z,9.47
2019-05-10T21:56:39.771Z,9.71
2019-05-10T22:01:45.268Z,9.84
2019-05-10T22:06:50.621Z,9.78
2019-05-10T22:11:59.361Z,9.88
2019-05-10T22:17:03.896Z,9.97
2019-05-10T22:22:08.967Z,9.60
2019-05-10T22:27:14.505Z,9.55
2019-05-10T22:32:19.775Z,9.63
2019-05-10T22:37:25.328Z,9.45
2019-05-10T22:42:30.607Z,9.24
2019-05-10T22:47:36.246Z,9.31
2019-05-10T22:52:41.375Z,9.35
2019-05-10T22:57:46.863Z,9.21
2019-05-10T23:02:52.797Z,9.03
2019-05-10T23:07:58.200Z,9.09
2019-05-10T23:13:04.065Z,9.34
2019-05-10T23:18:09.162Z,9.28
2019-05-10T23:23:14.882Z,9.26
2019-05-10T23:28:20.650Z,9.29
2019-05-10T23:33:26.301Z,9.36
2019-05-10T23:38:31.411Z,9.35
2019-05-10T23:43:36.726Z,9.12
2019-05-10T23:48:42.250Z,9.22
2019-05-10T23:53:47.750Z,9.21
2019-05-10T23:58:53.104Z,9.31
